Terminal Aerodrome Forecast
Issued by NWS

Home | Current Version | Previous Version | Graphics & Text | Print | Product List | Glossary On
Versions: 1 2 3 4 5 6 7 8 9 10 11 12 13 14
520
FTUS43 KMPX 161138
TAFAXN
TAF
KAXN 161138Z 1612/1712 10007KT P6SM OVC008
     FM161800 14015G23KT P6SM BKN015
     FM162100 15021G30KT P6SM OVC100
     FM171000 16013KT P6SM OVC100=

USA.gov is the U.S. government's official web portal to all federal, state and local government web resources and services.